createdAt,value
2023-03-13T00:01:55.343Z,21.70
2023-03-13T00:04:32.649Z,21.70
2023-03-13T00:07:05.643Z,21.70
2023-03-13T00:09:38.349Z,21.80
2023-03-13T00:12:11.536Z,21.80
2023-03-13T00:14:44.810Z,21.90
2023-03-13T00:17:17.791Z,21.90
2023-03-13T00:19:51.189Z,22.00
2023-03-13T00:22:24.198Z,22.00
2023-03-13T00:24:57.090Z,22.00
2023-03-13T00:27:30.101Z,22.00
2023-03-13T00:30:03.219Z,22.00
2023-03-13T00:32:36.766Z,22.10
2023-03-13T00:35:10.128Z,22.10
2023-03-13T00:37:43.098Z,22.10
2023-03-13T00:40:16.519Z,22.10
2023-03-13T00:42:49.579Z,22.10
2023-03-13T00:45:26.932Z,22.20
2023-03-13T00:47:59.855Z,22.20
2023-03-13T00:50:32.738Z,22.20
2023-03-13T00:53:05.611Z,22.20
2023-03-13T00:55:38.549Z,22.30
2023-03-13T00:58:11.599Z,22.20
2023-03-13T01:00:44.595Z,22.20
2023-03-13T01:03:17.926Z,22.30
2023-03-13T01:05:52.347Z,22.30
2023-03-13T01:08:26.490Z,22.30
2023-03-13T01:11:07.613Z,22.30
2023-03-13T01:13:41.291Z,22.30
2023-03-13T01:16:16.146Z,22.30
2023-03-13T01:18:53.793Z,22.40
2023-03-13T01:21:27.395Z,22.30
2023-03-13T01:24:00.554Z,22.30
2023-03-13T01:26:33.837Z,22.30
2023-03-13T01:29:06.882Z,22.30
2023-03-13T01:31:41.295Z,22.30
2023-03-13T01:34:17.094Z,22.30
2023-03-13T01:36:51.340Z,22.30
2023-03-13T01:39:25.165Z,22.20
2023-03-13T01:41:58.685Z,22.20
2023-03-13T01:44:32.057Z,22.20
2023-03-13T01:47:05.181Z,22.20
2023-03-13T01:49:39.095Z,22.20
2023-03-13T01:52:13.870Z,22.20
2023-03-13T01:54:57.323Z,22.20
2023-03-13T01:57:34.908Z,22.20
2023-03-13T02:00:15.955Z,22.20
2023-03-13T02:02:53.569Z,22.30
2023-03-13T02:05:28.653Z,22.30
2023-03-13T02:08:06.647Z,22.30
2023-03-13T02:10:41.387Z,22.30
2023-03-13T02:13:18.511Z,22.30
2023-03-13T02:15:51.946Z,22.30
2023-03-13T02:18:28.092Z,22.40
2023-03-13T02:21:02.870Z,22.30
2023-03-13T02:23:37.725Z,22.30
2023-03-13T02:26:11.389Z,22.30
2023-03-13T02:28:44.566Z,22.30
2023-03-13T02:31:18.094Z,22.40
2023-03-13T02:33:51.539Z,22.50
2023-03-13T02:36:24.975Z,22.50
2023-03-13T02:39:04.437Z,22.50
2023-03-13T02:41:38.708Z,22.40
2023-03-13T02:44:11.758Z,22.40
2023-03-13T02:46:53.519Z,22.40
2023-03-13T02:49:31.662Z,22.40
2023-03-13T02:52:06.873Z,22.40
2023-03-13T02:54:41.611Z,22.40
2023-03-13T02:57:14.792Z,22.30
2023-03-13T02:59:47.982Z,22.30
2023-03-13T03:02:21.191Z,22.30
2023-03-13T03:04:54.451Z,22.30
2023-03-13T03:07:27.311Z,22.30
2023-03-13T03:10:00.007Z,22.30
2023-03-13T03:12:32.966Z,22.30
2023-03-13T03:15:06.803Z,22.30
2023-03-13T03:17:39.664Z,22.30
2023-03-13T03:20:13.977Z,22.40
2023-03-13T03:22:46.967Z,22.40
2023-03-13T03:25:19.885Z,22.40
2023-03-13T03:27:52.872Z,22.40
2023-03-13T03:30:25.807Z,22.40
2023-03-13T03:32:58.946Z,22.40
2023-03-13T03:35:32.470Z,22.40
2023-03-13T03:38:05.753Z,22.40
2023-03-13T03:40:38.986Z,22.40
2023-03-13T03:43:12.129Z,22.40
2023-03-13T03:45:44.984Z,22.30
2023-03-13T03:48:22.238Z,22.30
2023-03-13T03:50:55.413Z,22.30
2023-03-13T03:53:35.812Z,22.30
2023-03-13T03:56:09.279Z,22.20
2023-03-13T03:58:47.716Z,22.20
2023-03-13T04:01:21.283Z,22.20
2023-03-13T04:03:54.139Z,22.10
2023-03-13T04:06:26.994Z,22.10
2023-03-13T04:09:00.473Z,22.10
2023-03-13T04:11:36.104Z,22.00
2023-03-13T04:14:09.215Z,22.00
2023-03-13T04:16:42.289Z,21.90
2023-03-13T04:19:15.226Z,21.90
2023-03-13T04:21:50.509Z,21.90
2023-03-13T04:24:23.241Z,21.90
2023-03-13T04:26:56.163Z,21.80
2023-03-13T04:29:29.613Z,21.80
2023-03-13T04:32:02.880Z,21.80
2023-03-13T04:34:35.832Z,21.80
2023-03-13T04:37:08.965Z,21.80
2023-03-13T04:39:47.284Z,21.80
2023-03-13T04:42:20.407Z,21.80
2023-03-13T04:44:53.266Z,21.80
2023-03-13T04:47:26.015Z,21.80
2023-03-13T04:49:59.143Z,21.80
2023-03-13T04:52:32.329Z,21.80
2023-03-13T04:55:05.531Z,21.80
2023-03-13T04:57:39.063Z,21.80
2023-03-13T05:00:14.120Z,21.80
2023-03-13T05:02:47.493Z,21.70
2023-03-13T05:05:21.059Z,21.70
2023-03-13T05:07:54.543Z,21.70
2023-03-13T05:10:35.829Z,21.60
2023-03-13T05:13:08.836Z,21.60
2023-03-13T05:15:41.682Z,21.60
2023-03-13T05:18:14.894Z,21.60
2023-03-13T05:20:47.825Z,21.50
2023-03-13T05:23:20.502Z,21.50
2023-03-13T05:25:53.366Z,21.50
2023-03-13T05:28:26.316Z,21.50
2023-03-13T05:30:59.533Z,21.40
2023-03-13T05:33:33.132Z,21.40
2023-03-13T05:36:06.403Z,21.40
2023-03-13T05:38:39.600Z,21.30
2023-03-13T05:41:12.701Z,21.30
2023-03-13T05:43:45.834Z,21.30
2023-03-13T05:46:19.085Z,21.20
2023-03-13T05:48:51.925Z,21.20
2023-03-13T05:51:27.615Z,21.20
2023-03-13T05:54:00.667Z,21.20
2023-03-13T05:56:33.606Z,21.20
2023-03-13T05:59:06.530Z,21.20
2023-03-13T06:01:39.501Z,21.20
2023-03-13T06:04:12.379Z,21.30
2023-03-13T06:06:45.842Z,21.30
2023-03-13T06:09:18.660Z,21.30
2023-03-13T06:11:51.485Z,21.30
2023-03-13T06:14:24.602Z,21.30
2023-03-13T06:17:02.763Z,21.30
2023-03-13T06:19:36.756Z,21.20
2023-03-13T06:22:09.509Z,21.10
2023-03-13T06:24:42.306Z,21.00
2023-03-13T06:27:15.656Z,20.80
2023-03-13T06:29:48.769Z,20.70
2023-03-13T06:32:21.860Z,20.60
2023-03-13T06:34:55.198Z,20.60
2023-03-13T06:37:28.802Z,20.50
2023-03-13T06:40:02.286Z,20.50
2023-03-13T06:42:35.073Z,20.40
2023-03-13T06:45:07.968Z,20.40
2023-03-13T06:47:41.129Z,20.30
2023-03-13T06:50:15.043Z,20.30
2023-03-13T06:52:47.834Z,20.20
2023-03-13T06:55:20.827Z,20.20
2023-03-13T06:57:56.956Z,20.10
2023-03-13T07:00:30.091Z,20.10
2023-03-13T07:03:02.862Z,20.10
2023-03-13T07:05:35.775Z,20.00
2023-03-13T07:08:09.425Z,20.00
2023-03-13T07:10:42.239Z,20.00
2023-03-13T07:13:15.198Z,19.90
2023-03-13T07:15:48.112Z,19.90
2023-03-13T07:18:21.090Z,19.90
2023-03-13T07:20:58.479Z,19.80
2023-03-13T07:23:32.622Z,19.80
2023-03-13T07:26:07.217Z,19.80
2023-03-13T07:28:39.884Z,19.80
2023-03-13T07:31:18.188Z,19.80
2023-03-13T07:33:51.406Z,19.70
2023-03-13T07:36:24.289Z,19.70
2023-03-13T07:38:58.469Z,19.70
2023-03-13T07:41:32.007Z,19.70
2023-03-13T07:44:04.910Z,19.60
2023-03-13T07:46:37.812Z,19.60
2023-03-13T07:49:11.523Z,19.60
2023-03-13T07:51:44.997Z,19.60
2023-03-13T07:54:18.256Z,19.60
2023-03-13T07:56:51.009Z,19.50
2023-03-13T07:59:24.328Z,19.50
2023-03-13T08:02:14.592Z,19.50
2023-03-13T08:04:47.715Z,19.50
2023-03-13T08:07:20.901Z,19.40
2023-03-13T08:09:53.779Z,19.40
2023-03-13T08:12:26.865Z,19.40
2023-03-13T08:14:59.957Z,19.30
2023-03-13T08:17:35.628Z,19.30
2023-03-13T08:20:08.877Z,19.30
2023-03-13T08:22:41.886Z,19.20
2023-03-13T08:25:15.123Z,19.20
2023-03-13T08:27:48.140Z,19.20
2023-03-13T08:30:21.346Z,19.10
2023-03-13T08:32:54.704Z,19.10
2023-03-13T08:35:28.027Z,19.10
2023-03-13T08:38:00.969Z,19.10
2023-03-13T08:40:36.471Z,19.00
2023-03-13T08:43:14.163Z,19.00
2023-03-13T08:45:47.007Z,19.00
2023-03-13T08:48:20.182Z,19.00
2023-03-13T08:50:54.445Z,18.90
2023-03-13T08:53:28.060Z,19.00
2023-03-13T08:56:00.973Z,19.00
2023-03-13T08:58:34.602Z,19.00
2023-03-13T09:01:15.158Z,18.90
2023-03-13T09:03:48.545Z,19.00
2023-03-13T09:06:21.522Z,18.90
2023-03-13T09:08:54.101Z,18.90
2023-03-13T09:11:27.024Z,19.00
2023-03-13T09:14:02.249Z,18.90
2023-03-13T09:16:40.405Z,18.90
2023-03-13T09:19:13.157Z,18.90
2023-03-13T09:21:46.074Z,18.90
2023-03-13T09:24:19.274Z,18.90
2023-03-13T09:27:01.023Z,18.90
2023-03-13T09:29:26.294Z,18.90
2023-03-13T09:32:03.403Z,18.90
2023-03-13T09:34:37.503Z,18.90
2023-03-13T09:37:10.756Z,18.80
2023-03-13T09:39:43.701Z,18.80
2023-03-13T09:42:24.892Z,18.70
2023-03-13T09:45:06.049Z,18.70
2023-03-13T09:47:44.204Z,18.70
2023-03-13T09:50:43.064Z,18.70
2023-03-13T09:53:20.959Z,18.60
2023-03-13T09:55:54.925Z,18.60
2023-03-13T09:58:29.885Z,18.60
2023-03-13T10:01:07.605Z,18.60
2023-03-13T10:03:46.219Z,18.50
2023-03-13T10:06:20.686Z,18.50
2023-03-13T10:08:54.678Z,18.50
2023-03-13T10:11:29.625Z,18.50
2023-03-13T10:14:22.777Z,18.50
2023-03-13T10:17:13.946Z,18.50
2023-03-13T10:19:50.948Z,18.50
2023-03-13T10:22:28.600Z,18.50
2023-03-13T10:25:10.109Z,18.50
2023-03-13T10:27:51.152Z,18.40
2023-03-13T10:30:41.512Z,18.40
2023-03-13T10:33:16.509Z,18.40
2023-03-13T10:35:50.317Z,18.40
2023-03-13T10:38:27.207Z,18.40
2023-03-13T10:41:12.456Z,18.40
2023-03-13T10:43:48.635Z,18.30
2023-03-13T10:46:33.171Z,18.30
2023-03-13T10:49:07.648Z,18.30
2023-03-13T10:51:42.727Z,18.30
2023-03-13T10:54:29.106Z,18.30
2023-03-13T10:57:23.818Z,18.20
2023-03-13T10:59:57.624Z,18.20
2023-03-13T11:02:41.468Z,18.20
2023-03-13T11:05:28.933Z,18.10
2023-03-13T11:08:01.898Z,18.10
2023-03-13T11:10:35.812Z,18.10
2023-03-13T11:13:08.863Z,18.10
2023-03-13T11:15:52.730Z,18.10
2023-03-13T11:18:31.414Z,18.10
2023-03-13T11:21:17.629Z,18.00
2023-03-13T11:23:44.624Z,18.00
2023-03-13T11:26:22.712Z,18.00
2023-03-13T11:29:16.988Z,18.00
2023-03-13T11:31:54.941Z,18.00
2023-03-13T11:34:44.563Z,18.00
2023-03-13T11:37:22.629Z,17.90
2023-03-13T11:40:22.513Z,17.90
2023-03-13T11:43:17.956Z,17.80
2023-03-13T11:46:04.494Z,17.80
2023-03-13T11:49:07.906Z,17.80
2023-03-13T11:51:48.621Z,17.70
2023-03-13T11:54:38.629Z,17.70
2023-03-13T11:57:30.829Z,17.60
2023-03-13T12:00:26.963Z,17.60
2023-03-13T12:03:05.850Z,17.60
2023-03-13T12:05:49.480Z,17.60
2023-03-13T12:08:26.914Z,17.50
2023-03-13T12:11:01.973Z,17.50
2023-03-13T12:13:36.791Z,17.50
2023-03-13T12:16:11.718Z,17.50
2023-03-13T12:18:46.201Z,17.50
2023-03-13T12:21:27.564Z,17.50
2023-03-13T12:24:05.525Z,17.50
2023-03-13T12:26:47.474Z,17.40
2023-03-13T12:29:22.346Z,17.40
2023-03-13T12:32:09.048Z,17.40
2023-03-13T12:35:00.188Z,17.40
2023-03-13T12:37:40.540Z,17.40
2023-03-13T12:40:30.558Z,17.40
2023-03-13T12:43:08.398Z,17.40
2023-03-13T12:45:43.772Z,17.40
2023-03-13T12:48:37.010Z,17.40
2023-03-13T12:51:40.485Z,17.30
2023-03-13T12:54:45.883Z,17.30
2023-03-13T12:57:40.007Z,17.30
2023-03-13T13:00:20.942Z,17.30
2023-03-13T13:03:16.557Z,17.30
2023-03-13T13:06:12.346Z,17.20
2023-03-13T13:08:59.421Z,17.20
2023-03-13T13:11:43.476Z,17.20
2023-03-13T13:14:21.028Z,17.20
2023-03-13T13:17:08.689Z,17.20
2023-03-13T13:19:46.424Z,17.20
2023-03-13T13:22:40.888Z,17.20
2023-03-13T13:25:19.177Z,17.10
2023-03-13T13:27:52.708Z,17.10
2023-03-13T13:30:27.777Z,17.10
2023-03-13T13:33:02.990Z,17.20
2023-03-13T13:35:37.974Z,17.10
2023-03-13T13:38:28.108Z,17.10
2023-03-13T13:41:09.049Z,17.10
2023-03-13T13:43:44.242Z,17.10
2023-03-13T13:46:31.758Z,17.00
2023-03-13T13:49:13.049Z,17.00
2023-03-13T13:51:48.038Z,16.90
2023-03-13T13:54:42.269Z,16.90
2023-03-13T13:57:17.256Z,16.80
2023-03-13T13:59:52.088Z,16.80
2023-03-13T14:02:26.997Z,16.80
2023-03-13T14:05:11.058Z,16.80
2023-03-13T14:07:52.055Z,16.70
2023-03-13T14:10:38.134Z,16.70
2023-03-13T14:13:22.466Z,16.70
2023-03-13T14:15:56.072Z,16.60
2023-03-13T14:18:30.653Z,16.60
2023-03-13T14:21:09.300Z,16.60
2023-03-13T14:23:46.999Z,16.60
2023-03-13T14:26:30.936Z,16.60
2023-03-13T14:29:11.220Z,16.60
2023-03-13T14:31:44.304Z,16.60
2023-03-13T14:34:18.138Z,16.50
2023-03-13T14:37:04.371Z,16.50
2023-03-13T14:39:54.566Z,16.50
2023-03-13T14:42:27.702Z,16.50
2023-03-13T14:45:01.049Z,16.50
2023-03-13T14:47:34.661Z,16.50
2023-03-13T14:50:09.336Z,16.50
2023-03-13T14:52:43.730Z,16.60
2023-03-13T14:55:30.688Z,16.60
2023-03-13T14:58:26.839Z,16.70
2023-03-13T15:01:00.957Z,16.70
2023-03-13T15:03:35.768Z,16.70
2023-03-13T15:06:13.870Z,16.70
2023-03-13T15:08:51.884Z,16.80
2023-03-13T15:11:26.649Z,16.80
2023-03-13T15:14:00.149Z,16.80
2023-03-13T15:16:33.331Z,16.80
2023-03-13T15:19:06.487Z,16.80
2023-03-13T15:21:39.767Z,16.80
2023-03-13T15:24:17.313Z,16.80
2023-03-13T15:26:50.061Z,16.90
2023-03-13T15:29:23.127Z,16.90
2023-03-13T15:31:56.086Z,16.80
2023-03-13T15:34:28.962Z,16.80
2023-03-13T15:37:01.856Z,16.80
2023-03-13T15:39:34.766Z,16.80
2023-03-13T15:42:07.640Z,16.80
2023-03-13T15:44:40.613Z,16.90
2023-03-13T15:47:15.604Z,16.80
2023-03-13T15:49:48.673Z,16.80
2023-03-13T15:52:24.560Z,16.80
2023-03-13T15:54:57.599Z,16.80
2023-03-13T15:57:31.151Z,16.80
2023-03-13T16:00:04.033Z,16.80
2023-03-13T16:02:36.875Z,16.80
2023-03-13T16:05:10.306Z,16.80
2023-03-13T16:07:43.252Z,16.80
2023-03-13T16:10:25.470Z,16.80
2023-03-13T16:12:57.674Z,16.80
2023-03-13T16:15:30.594Z,16.80
2023-03-13T16:18:03.473Z,16.70
2023-03-13T16:20:37.172Z,16.70
2023-03-13T16:23:09.919Z,16.70
2023-03-13T16:25:43.967Z,16.70
2023-03-13T16:28:17.595Z,16.80
2023-03-13T16:30:50.386Z,16.80
2023-03-13T16:33:23.296Z,16.70
2023-03-13T16:35:58.272Z,16.70
2023-03-13T16:38:31.114Z,16.70
2023-03-13T16:41:03.877Z,16.70
2023-03-13T16:43:36.938Z,16.70
2023-03-13T16:46:20.904Z,16.70
2023-03-13T16:48:54.606Z,16.70
2023-03-13T16:51:29.608Z,16.70
2023-03-13T16:54:07.150Z,16.70
2023-03-13T16:56:45.216Z,16.70
2023-03-13T16:59:24.648Z,16.70
2023-03-13T17:01:57.588Z,16.70
2023-03-13T17:04:30.538Z,16.70
2023-03-13T17:07:03.613Z,16.70
2023-03-13T17:09:36.685Z,16.70
2023-03-13T17:12:09.838Z,16.70
2023-03-13T17:14:43.188Z,16.70
2023-03-13T17:17:18.625Z,16.70
2023-03-13T17:19:51.403Z,16.70
2023-03-13T17:22:24.187Z,16.70
2023-03-13T17:24:56.889Z,16.70
2023-03-13T17:27:29.639Z,16.70
2023-03-13T17:30:02.573Z,16.70
2023-03-13T17:32:35.859Z,16.70
2023-03-13T17:35:09.211Z,16.70
2023-03-13T17:37:42.412Z,16.70
2023-03-13T17:40:29.713Z,16.70
2023-03-13T17:43:02.528Z,16.70
2023-03-13T17:45:36.277Z,16.70
2023-03-13T17:48:10.727Z,16.70
2023-03-13T17:50:44.115Z,16.70
2023-03-13T17:53:17.138Z,16.70
2023-03-13T17:55:49.968Z,16.70
2023-03-13T17:58:23.128Z,16.70
2023-03-13T18:00:55.870Z,16.70
2023-03-13T18:03:29.049Z,16.70
2023-03-13T18:06:01.907Z,16.70
2023-03-13T18:08:35.277Z,16.60
2023-03-13T18:11:08.313Z,16.60
2023-03-13T18:13:41.470Z,16.60
2023-03-13T18:16:22.504Z,16.60
2023-03-13T18:18:56.092Z,16.60
2023-03-13T18:21:29.222Z,16.60
2023-03-13T18:24:02.139Z,16.60
2023-03-13T18:26:37.102Z,16.60
2023-03-13T18:29:12.225Z,16.60
2023-03-13T18:31:45.686Z,16.60
2023-03-13T18:34:18.790Z,16.50
2023-03-13T18:36:51.917Z,16.50
2023-03-13T18:39:25.079Z,16.50
2023-03-13T18:41:58.024Z,16.50
2023-03-13T18:44:31.130Z,16.50
2023-03-13T18:47:06.329Z,16.60
2023-03-13T18:49:39.646Z,16.60
2023-03-13T18:52:14.072Z,16.60
2023-03-13T18:54:47.081Z,16.60
2023-03-13T18:57:21.953Z,16.60
2023-03-13T18:59:54.922Z,16.60
2023-03-13T19:02:28.046Z,16.60
2023-03-13T19:05:01.276Z,16.60
2023-03-13T19:07:34.831Z,16.60
2023-03-13T19:10:08.014Z,16.70
2023-03-13T19:12:41.046Z,16.70
2023-03-13T19:15:14.648Z,16.70
2023-03-13T19:17:47.798Z,16.70
2023-03-13T19:20:25.825Z,16.80
2023-03-13T19:23:00.267Z,16.80
2023-03-13T19:25:34.537Z,16.80
2023-03-13T19:28:08.695Z,16.90
2023-03-13T19:30:41.929Z,16.90
2023-03-13T19:33:14.982Z,17.00
2023-03-13T19:35:48.150Z,17.00
2023-03-13T19:38:21.202Z,17.00
2023-03-13T19:40:54.534Z,17.10
2023-03-13T19:43:27.740Z,17.20
2023-03-13T19:46:00.770Z,17.20
2023-03-13T19:48:33.989Z,17.20
2023-03-13T19:51:07.427Z,17.30
2023-03-13T19:53:41.652Z,17.30
2023-03-13T19:56:33.735Z,17.40
2023-03-13T19:59:17.782Z,17.50
2023-03-13T20:01:50.960Z,17.50
2023-03-13T20:04:23.868Z,17.60
2023-03-13T20:06:57.236Z,17.60
2023-03-13T20:09:35.652Z,17.60
2023-03-13T20:12:09.817Z,17.70
2023-03-13T20:14:42.966Z,17.70
2023-03-13T20:17:16.203Z,17.80
2023-03-13T20:19:52.657Z,17.80
2023-03-13T20:22:25.749Z,17.90
2023-03-13T20:24:58.681Z,18.00
2023-03-13T20:27:36.331Z,18.10
2023-03-13T20:30:10.279Z,18.10
2023-03-13T20:32:56.742Z,18.20
2023-03-13T20:35:17.650Z,18.20
2023-03-13T20:37:51.828Z,18.20
2023-03-13T20:40:25.094Z,18.30
2023-03-13T20:42:59.455Z,18.30
2023-03-13T20:45:33.078Z,18.30
2023-03-13T20:48:06.036Z,18.30
2023-03-13T20:50:40.072Z,18.30
2023-03-13T20:53:15.794Z,18.40
2023-03-13T20:55:49.175Z,18.40
2023-03-13T20:58:25.937Z,18.40
2023-03-13T21:01:01.205Z,18.40
2023-03-13T21:03:35.629Z,18.40
2023-03-13T21:06:13.999Z,18.40
2023-03-13T21:08:48.866Z,18.40
2023-03-13T21:11:24.278Z,18.40
2023-03-13T21:13:57.343Z,18.40
2023-03-13T21:16:30.439Z,18.40
2023-03-13T21:19:03.284Z,18.40
2023-03-13T21:21:39.374Z,18.40
2023-03-13T21:24:12.895Z,18.40
2023-03-13T21:26:46.122Z,18.50
2023-03-13T21:29:19.523Z,18.50
2023-03-13T21:31:52.514Z,18.60
2023-03-13T21:34:34.608Z,18.60
2023-03-13T21:37:07.304Z,18.60
2023-03-13T21:39:41.343Z,18.60
2023-03-13T21:42:15.918Z,18.70
2023-03-13T21:44:52.670Z,18.70
2023-03-13T21:47:26.911Z,18.70
2023-03-13T21:49:59.858Z,18.80
2023-03-13T21:55:39.241Z,18.90
2023-03-13T21:58:12.242Z,18.90
2023-03-13T22:00:45.200Z,18.90
2023-03-13T22:03:18.483Z,19.00
2023-03-13T22:05:54.538Z,19.00
2023-03-13T22:08:28.559Z,19.00
2023-03-13T22:11:01.957Z,19.00
2023-03-13T22:13:35.100Z,19.00
2023-03-13T22:16:08.376Z,19.00
2023-03-13T22:18:41.701Z,19.10
2023-03-13T22:21:17.416Z,19.10
2023-03-13T22:23:50.451Z,19.20
2023-03-13T22:26:23.066Z,19.20
2023-03-13T22:28:56.110Z,19.30
2023-03-13T22:31:29.227Z,19.40
2023-03-13T22:34:02.289Z,19.40
2023-03-13T22:36:35.478Z,19.40
2023-03-13T22:39:08.327Z,19.50
2023-03-13T22:41:42.526Z,19.50
2023-03-13T22:44:15.526Z,19.50
2023-03-13T22:46:48.609Z,19.50
2023-03-13T22:49:21.547Z,19.50
2023-03-13T22:51:54.749Z,19.60
2023-03-13T22:54:28.847Z,19.60
2023-03-13T22:57:02.291Z,19.70
2023-03-13T22:59:35.363Z,19.80
2023-03-13T23:02:08.314Z,19.80
2023-03-13T23:04:41.206Z,19.80
2023-03-13T23:07:14.251Z,19.90
2023-03-13T23:09:47.391Z,19.90
2023-03-13T23:12:20.427Z,20.00
2023-03-13T23:14:53.438Z,20.00
2023-03-13T23:17:26.234Z,20.00
2023-03-13T23:19:59.150Z,20.10
2023-03-13T23:22:36.274Z,20.20
2023-03-13T23:25:09.634Z,20.30
2023-03-13T23:27:42.697Z,20.30
2023-03-13T23:30:17.608Z,20.40
2023-03-13T23:32:54.127Z,20.40
2023-03-13T23:35:27.332Z,20.50
2023-03-13T23:38:00.307Z,20.50
2023-03-13T23:40:33.292Z,20.50
2023-03-13T23:43:06.556Z,20.50
2023-03-13T23:45:40.070Z,20.50
2023-03-13T23:48:13.229Z,20.60
2023-03-13T23:50:47.114Z,20.60
2023-03-13T23:53:20.284Z,20.50
2023-03-13T23:55:54.824Z,20.60
2023-03-13T23:58:28.281Z,20.60
